Citrus City, Texas
Current Conditions -  °F | °C
As of 11:53 AM on Friday 21 Nov 2014 (Local Time) from KMFE Reporting Station
Light Rain Light Rain  
Wind Chill: 73°   Ceiling: 900
Heat Index: 73°   Visibility: 7mi
Dew Point: 70°   Wind: 14mph
Humidity: 90%   Direction: 140°SE
Pressure: 30.06"   Gusts: NA
Location:  26.2167°N, 98.325°W
Report Text: KMFE 211753Z 14012KT 7SM -RA BKN009 BKN016 OVC024 23/21 A3006 RMK AO2 RAE20B36 SLP176 P0001 60001 T02280211 10228 20200 58003
Loading
Personal Weather Stations






























Interactive Weather Map New forecast layout! Learn more

10-Day Weather Forecast

Advertisements
Track Severe Weather on mobile